createdAt,value
2018-10-03T00:01:41.411Z,5.20
2018-10-03T00:04:09.553Z,4.60
2018-10-03T00:06:37.674Z,6.10
2018-10-03T00:09:07.086Z,4.50
2018-10-03T00:11:35.219Z,5.80
2018-10-03T00:14:03.790Z,4.50
2018-10-03T00:16:31.918Z,5.20
2018-10-03T00:19:00.055Z,5.27
2018-10-03T00:21:28.187Z,5.13
2018-10-03T00:23:56.342Z,4.53
2018-10-03T00:26:24.474Z,4.77
2018-10-03T00:28:52.685Z,5.20
2018-10-03T00:31:20.812Z,5.57
2018-10-03T00:33:48.963Z,4.23
2018-10-03T00:36:17.094Z,4.70
2018-10-03T00:38:45.239Z,5.37
2018-10-03T00:41:13.362Z,4.73
2018-10-03T00:43:41.507Z,4.97
2018-10-03T00:46:09.723Z,5.17
2018-10-03T00:48:37.871Z,4.70
2018-10-03T00:51:05.993Z,5.37
2018-10-03T00:53:34.135Z,5.00
2018-10-03T00:56:02.257Z,4.80
2018-10-03T00:58:30.382Z,5.10
2018-10-03T01:00:58.515Z,4.93
2018-10-03T01:03:26.667Z,5.30
2018-10-03T01:05:54.814Z,5.60
2018-10-03T01:08:22.939Z,4.37
2018-10-03T01:10:51.079Z,5.13
2018-10-03T01:13:19.201Z,5.07
2018-10-03T01:15:47.363Z,5.03
2018-10-03T01:18:15.486Z,4.57
2018-10-03T01:20:43.627Z,4.50
2018-10-03T01:23:11.763Z,4.80
2018-10-03T01:25:39.886Z,4.90
2018-10-03T01:28:08.020Z,4.50
2018-10-03T01:30:36.154Z,4.53
2018-10-03T01:33:04.293Z,3.90
2018-10-03T01:35:32.445Z,4.00
2018-10-03T01:38:00.594Z,3.90
2018-10-03T01:40:28.738Z,3.80
2018-10-03T01:42:56.871Z,4.70
2018-10-03T01:45:25.025Z,4.63
2018-10-03T01:47:53.155Z,4.50
2018-10-03T01:50:21.298Z,4.33
2018-10-03T01:52:49.437Z,3.90
2018-10-03T01:55:17.587Z,4.63
2018-10-03T01:57:45.722Z,3.73
2018-10-03T02:00:13.864Z,4.10
2018-10-03T02:02:41.999Z,4.17
2018-10-03T02:05:10.142Z,3.93
2018-10-03T02:07:38.274Z,3.93
2018-10-03T02:10:06.414Z,3.53
2018-10-03T02:12:34.538Z,4.00
2018-10-03T02:15:02.687Z,4.10
2018-10-03T02:17:30.827Z,3.93
2018-10-03T02:19:59.006Z,3.20
2018-10-03T02:22:27.105Z,3.70
2018-10-03T02:24:55.246Z,3.37
2018-10-03T02:27:23.379Z,3.90
2018-10-03T02:29:51.534Z,4.00
2018-10-03T02:32:19.675Z,4.27
2018-10-03T02:34:47.812Z,3.90
2018-10-03T02:37:15.990Z,3.63
2018-10-03T02:39:44.123Z,3.60
2018-10-03T02:42:12.267Z,4.20
2018-10-03T02:44:40.394Z,4.13
2018-10-03T02:47:08.578Z,4.10
2018-10-03T02:49:36.707Z,4.10
2018-10-03T02:52:04.847Z,4.50
2018-10-03T02:54:32.986Z,4.07
2018-10-03T02:57:01.136Z,3.27
2018-10-03T02:59:29.271Z,3.70
2018-10-03T03:01:57.416Z,4.10
2018-10-03T03:04:25.546Z,3.53
2018-10-03T03:06:53.695Z,4.67
2018-10-03T03:09:21.870Z,5.23
2018-10-03T03:11:49.985Z,4.50
2018-10-03T03:14:18.115Z,4.37
2018-10-03T03:16:46.273Z,3.90
2018-10-03T03:19:14.410Z,4.43
2018-10-03T03:21:42.565Z,5.00
2018-10-03T03:24:10.694Z,4.40
2018-10-03T03:26:38.847Z,4.40
2018-10-03T03:29:06.970Z,5.00
2018-10-03T03:31:35.113Z,5.00
2018-10-03T03:34:03.256Z,5.03
2018-10-03T03:36:31.390Z,4.97
2018-10-03T03:38:59.518Z,4.47
2018-10-03T03:41:27.668Z,4.87
2018-10-03T03:43:55.799Z,5.10
2018-10-03T03:46:23.953Z,5.13
2018-10-03T03:48:52.082Z,4.97
2018-10-03T03:51:20.227Z,5.10
2018-10-03T03:53:48.370Z,4.20
2018-10-03T03:56:16.510Z,5.30
2018-10-03T03:58:44.646Z,4.60
2018-10-03T04:01:12.783Z,5.27
2018-10-03T04:03:40.924Z,5.20
2018-10-03T04:06:09.065Z,5.67
2018-10-03T04:08:37.325Z,5.30
2018-10-03T04:11:05.462Z,4.77
2018-10-03T04:13:33.611Z,5.47
2018-10-03T04:16:01.756Z,6.77
2018-10-03T04:18:29.907Z,5.90
2018-10-03T04:20:58.078Z,6.43
2018-10-03T04:23:26.223Z,5.03
2018-10-03T04:25:54.358Z,5.63
2018-10-03T04:28:22.714Z,4.97
2018-10-03T04:30:50.872Z,5.87
2018-10-03T04:33:19.027Z,5.60
2018-10-03T04:35:47.272Z,6.30
2018-10-03T04:38:15.299Z,6.40
2018-10-03T04:40:43.430Z,5.33
2018-10-03T04:43:11.566Z,5.80
2018-10-03T04:45:39.690Z,5.90
2018-10-03T04:48:07.829Z,6.10
2018-10-03T04:50:35.959Z,6.23
2018-10-03T04:53:04.103Z,6.40
2018-10-03T04:55:32.234Z,6.40
2018-10-03T04:58:00.379Z,5.93
2018-10-03T05:00:28.506Z,6.17
2018-10-03T05:02:56.637Z,5.70
2018-10-03T05:05:24.769Z,5.07
2018-10-03T05:07:52.919Z,6.53
2018-10-03T05:10:21.055Z,6.37
2018-10-03T05:12:49.251Z,5.90
2018-10-03T05:15:17.374Z,5.70
2018-10-03T05:17:45.510Z,5.63
2018-10-03T05:20:13.637Z,4.87
2018-10-03T05:22:41.819Z,5.03
2018-10-03T05:25:09.947Z,5.20
2018-10-03T05:27:38.104Z,5.07
2018-10-03T05:30:06.227Z,5.33
2018-10-03T05:32:34.366Z,5.60
2018-10-03T05:35:02.522Z,4.43
2018-10-03T05:37:30.654Z,5.40
2018-10-03T05:39:58.880Z,4.83
2018-10-03T05:42:27.007Z,4.67
2018-10-03T05:44:55.145Z,4.67
2018-10-03T05:47:23.274Z,5.27
2018-10-03T05:49:51.432Z,4.87
2018-10-03T05:52:19.558Z,5.43
2018-10-03T05:54:47.787Z,5.57
2018-10-03T05:57:15.918Z,6.00
2018-10-03T05:59:44.046Z,5.00
2018-10-03T06:02:12.178Z,5.67
2018-10-03T06:04:40.348Z,5.00
2018-10-03T06:07:08.483Z,5.67
2018-10-03T06:09:36.630Z,4.80
2018-10-03T06:12:04.817Z,4.90
2018-10-03T06:14:32.895Z,5.20
2018-10-03T06:17:01.031Z,5.60
2018-10-03T06:19:29.186Z,5.00
2018-10-03T06:21:57.311Z,5.40
2018-10-03T06:24:25.474Z,5.10
2018-10-03T06:26:53.611Z,5.33
2018-10-03T06:29:21.763Z,5.00
2018-10-03T06:31:49.898Z,6.00
2018-10-03T06:34:18.037Z,4.87
2018-10-03T06:36:46.170Z,4.87
2018-10-03T06:39:14.319Z,4.80
2018-10-03T06:41:42.435Z,4.40
2018-10-03T06:44:11.279Z,4.13
2018-10-03T06:46:39.423Z,3.77
2018-10-03T06:49:07.555Z,4.60
2018-10-03T06:51:35.703Z,4.53
2018-10-03T06:54:03.835Z,4.00
2018-10-03T06:56:31.975Z,4.03
2018-10-03T06:59:00.830Z,4.20
2018-10-03T07:01:28.968Z,4.60
2018-10-03T07:03:57.094Z,4.27
2018-10-03T07:06:25.229Z,3.90
2018-10-03T07:08:53.358Z,3.13
2018-10-03T07:11:21.523Z,3.73
2018-10-03T07:13:49.646Z,4.23
2018-10-03T07:16:18.182Z,4.13
2018-10-03T07:18:46.334Z,3.70
2018-10-03T07:21:14.495Z,3.80
2018-10-03T07:23:42.631Z,3.50
2018-10-03T07:26:11.030Z,3.70
2018-10-03T07:28:39.151Z,4.20
2018-10-03T07:31:07.379Z,3.80
2018-10-03T07:33:35.510Z,3.83
2018-10-03T07:36:03.914Z,3.43
2018-10-03T07:38:32.038Z,3.00
2018-10-03T07:41:00.182Z,3.27
2018-10-03T07:43:28.300Z,3.57
2018-10-03T07:45:56.618Z,4.57
2018-10-03T07:48:24.899Z,3.20
2018-10-03T07:50:53.027Z,2.90
2018-10-03T07:53:21.159Z,3.33
2018-10-03T07:55:49.291Z,3.07
2018-10-03T07:58:17.420Z,2.97
2018-10-03T08:00:45.554Z,3.20
2018-10-03T08:03:14.570Z,3.10
2018-10-03T08:05:42.738Z,2.60
2018-10-03T08:08:10.974Z,2.90
2018-10-03T08:10:39.972Z,3.10
2018-10-03T08:13:08.206Z,2.47
2018-10-03T08:15:36.599Z,2.80
2018-10-03T08:18:04.758Z,3.30
2018-10-03T08:20:32.901Z,2.83
2018-10-03T08:23:01.236Z,2.70
2018-10-03T08:25:29.366Z,3.10
2018-10-03T08:27:57.507Z,2.47
2018-10-03T08:30:25.634Z,2.60
2018-10-03T08:32:53.899Z,2.60
2018-10-03T08:35:21.931Z,2.50
2018-10-03T08:37:50.075Z,2.53
2018-10-03T08:40:18.206Z,2.53
2018-10-03T08:42:46.349Z,3.50
2018-10-03T08:45:14.482Z,2.90
2018-10-03T08:47:42.636Z,3.23
2018-10-03T08:50:12.126Z,2.73
2018-10-03T08:52:40.266Z,2.77
2018-10-03T08:55:08.663Z,2.30
2018-10-03T08:57:37.055Z,2.50
2018-10-03T09:00:05.810Z,2.50
2018-10-03T09:02:33.945Z,2.40
2018-10-03T09:05:02.076Z,3.20
2018-10-03T09:07:30.223Z,2.13
2018-10-03T09:09:58.355Z,2.50
2018-10-03T09:12:26.530Z,1.87
2018-10-03T09:14:54.694Z,2.30
2018-10-03T09:17:22.851Z,2.50
2018-10-03T09:19:50.978Z,1.70
2018-10-03T09:22:19.117Z,2.40
2018-10-03T09:24:47.251Z,2.27
2018-10-03T09:27:15.389Z,3.23
2018-10-03T09:29:43.535Z,2.13
2018-10-03T09:32:11.780Z,3.07
2018-10-03T09:34:39.962Z,1.70
2018-10-03T09:37:08.171Z,2.70
2018-10-03T09:39:36.393Z,2.07
2018-10-03T09:42:04.477Z,2.40
2018-10-03T09:44:32.679Z,2.33
2018-10-03T09:47:00.829Z,2.27
2018-10-03T09:49:28.970Z,2.80
2018-10-03T09:51:57.201Z,2.57
2018-10-03T09:54:25.357Z,2.80
2018-10-03T09:56:53.560Z,1.97
2018-10-03T09:59:21.689Z,2.07
2018-10-03T10:01:49.912Z,2.63
2018-10-03T10:04:18.089Z,2.40
2018-10-03T10:06:46.271Z,2.10
2018-10-03T10:09:14.414Z,2.40
2018-10-03T10:11:42.757Z,1.80
2018-10-03T10:14:10.800Z,2.00
2018-10-03T10:16:39.080Z,2.47
2018-10-03T10:19:07.224Z,1.67
2018-10-03T10:21:35.366Z,2.17
2018-10-03T10:24:03.507Z,2.40
2018-10-03T10:26:31.643Z,2.20
2018-10-03T10:28:59.921Z,2.00
2018-10-03T10:31:28.045Z,1.50
2018-10-03T10:33:56.190Z,2.20
2018-10-03T10:36:24.332Z,1.70
2018-10-03T10:38:52.577Z,1.70
2018-10-03T10:41:20.786Z,2.10
2018-10-03T10:43:48.858Z,1.60
2018-10-03T10:46:16.986Z,1.40
2018-10-03T10:48:45.139Z,1.93
2018-10-03T10:51:13.283Z,2.07
2018-10-03T10:53:41.412Z,1.67
2018-10-03T10:56:09.617Z,1.33
2018-10-03T10:58:37.746Z,1.50
2018-10-03T11:01:05.889Z,2.20
2018-10-03T11:03:34.018Z,1.90
2018-10-03T11:06:02.231Z,1.77
2018-10-03T11:08:30.359Z,2.80
2018-10-03T11:10:58.570Z,1.80
2018-10-03T11:13:26.714Z,2.00
2018-10-03T11:15:54.866Z,2.30
2018-10-03T11:18:22.994Z,1.73
2018-10-03T11:20:51.129Z,2.20
2018-10-03T11:23:19.272Z,2.10
2018-10-03T11:25:47.406Z,1.40
2018-10-03T11:28:15.554Z,1.97
2018-10-03T11:30:43.701Z,2.30
2018-10-03T11:33:11.831Z,2.20
2018-10-03T11:35:39.983Z,1.80
2018-10-03T11:38:08.357Z,1.80
2018-10-03T11:40:36.586Z,1.30
2018-10-03T11:43:04.743Z,1.53
2018-10-03T11:45:32.879Z,1.90
2018-10-03T11:48:01.007Z,1.60
2018-10-03T11:50:29.246Z,1.73
2018-10-03T11:52:57.332Z,1.70
2018-10-03T11:55:25.575Z,1.83
2018-10-03T11:57:53.706Z,1.47
2018-10-03T12:00:21.833Z,1.40
2018-10-03T12:02:50.063Z,2.00
2018-10-03T12:05:18.358Z,1.90
2018-10-03T12:07:46.490Z,1.57
2018-10-03T12:10:14.654Z,1.53
2018-10-03T12:12:42.791Z,2.23
2018-10-03T12:15:10.932Z,1.67
2018-10-03T12:17:39.087Z,1.83
2018-10-03T12:20:07.227Z,1.70
2018-10-03T12:22:35.363Z,2.23
2018-10-03T12:25:03.544Z,1.43
2018-10-03T12:27:31.624Z,2.20
2018-10-03T12:29:59.750Z,1.70
2018-10-03T12:32:27.891Z,2.40
2018-10-03T12:34:56.022Z,1.60
2018-10-03T12:37:24.154Z,1.73
2018-10-03T12:39:52.274Z,1.70
2018-10-03T12:42:20.427Z,2.00
2018-10-03T12:44:48.566Z,2.00
2018-10-03T12:47:16.709Z,1.97
2018-10-03T12:49:44.829Z,1.60
2018-10-03T12:52:12.962Z,2.17
2018-10-03T12:54:41.127Z,1.50
2018-10-03T12:57:09.222Z,1.60
2018-10-03T12:59:37.349Z,2.10
2018-10-03T13:02:05.486Z,2.20
2018-10-03T13:04:33.626Z,1.97
2018-10-03T13:07:01.780Z,2.80
2018-10-03T13:09:29.903Z,2.73
2018-10-03T13:11:58.030Z,1.80
2018-10-03T13:14:26.156Z,2.10
2018-10-03T13:16:54.299Z,1.90
2018-10-03T13:19:22.420Z,1.70
2018-10-03T13:21:50.558Z,1.63
2018-10-03T13:24:18.799Z,2.20
2018-10-03T13:26:46.903Z,2.80
2018-10-03T13:29:15.027Z,2.67
2018-10-03T13:31:43.174Z,1.97
2018-10-03T13:34:11.318Z,1.67
2018-10-03T13:36:39.445Z,1.63
2018-10-03T13:39:07.995Z,2.10
2018-10-03T13:41:36.224Z,1.53
2018-10-03T13:44:04.371Z,1.70
2018-10-03T13:46:32.682Z,1.83
2018-10-03T13:49:00.810Z,1.80
2018-10-03T13:51:29.163Z,1.97
2018-10-03T13:53:57.323Z,1.50
2018-10-03T13:56:25.515Z,1.63
2018-10-03T13:58:53.683Z,2.17
2018-10-03T14:01:21.806Z,1.50
2018-10-03T14:03:49.954Z,2.13
2018-10-03T14:06:18.104Z,1.67
2018-10-03T14:08:46.257Z,2.00
2018-10-03T14:11:14.409Z,1.97
2018-10-03T14:13:42.554Z,1.80
2018-10-03T14:16:10.694Z,3.43
2018-10-03T14:18:38.930Z,2.00
2018-10-03T14:21:07.032Z,1.60
2018-10-03T14:23:35.186Z,2.00
2018-10-03T14:26:03.371Z,1.67
2018-10-03T14:28:31.563Z,1.80
2018-10-03T14:30:59.694Z,1.67
2018-10-03T14:33:27.856Z,2.13
2018-10-03T14:35:56.005Z,1.80
2018-10-03T14:38:24.150Z,2.23
2018-10-03T14:40:52.285Z,2.33
2018-10-03T14:43:20.454Z,1.83
2018-10-03T14:45:48.582Z,2.03
2018-10-03T14:48:16.709Z,2.10
2018-10-03T14:50:44.863Z,1.90
2018-10-03T14:53:12.994Z,1.90
2018-10-03T14:55:41.184Z,2.00
2018-10-03T14:58:09.343Z,2.13
2018-10-03T15:00:37.497Z,2.00
2018-10-03T15:03:05.632Z,1.90
2018-10-03T15:05:33.765Z,2.00
2018-10-03T15:08:01.903Z,2.90
2018-10-03T15:10:30.053Z,6.00
2018-10-03T15:12:58.256Z,5.23
2018-10-03T15:15:26.327Z,2.80
2018-10-03T15:17:54.669Z,3.40
2018-10-03T15:20:22.807Z,3.60
2018-10-03T15:22:50.943Z,3.03
2018-10-03T15:25:19.085Z,2.93
2018-10-03T15:27:47.204Z,2.37
2018-10-03T15:30:15.361Z,1.80
2018-10-03T15:32:43.490Z,2.67
2018-10-03T15:35:11.652Z,2.30
2018-10-03T15:37:39.788Z,3.67
2018-10-03T15:40:07.935Z,2.50
2018-10-03T15:42:36.082Z,2.70
2018-10-03T15:45:04.226Z,2.87
2018-10-03T15:47:32.387Z,2.27
2018-10-03T15:50:00.546Z,2.03
2018-10-03T15:52:28.674Z,2.17
2018-10-03T15:54:56.878Z,2.63
2018-10-03T15:57:24.970Z,2.00
2018-10-03T15:59:53.120Z,4.17
2018-10-03T16:02:21.373Z,2.60
2018-10-03T16:04:49.514Z,2.50
2018-10-03T16:07:17.650Z,2.30
2018-10-03T16:09:45.859Z,2.40
2018-10-03T16:12:13.930Z,2.10
2018-10-03T16:14:42.083Z,2.50
2018-10-03T16:17:10.255Z,2.33
2018-10-03T16:19:38.404Z,2.47
2018-10-03T16:22:06.598Z,2.40
2018-10-03T16:24:34.733Z,2.23
2018-10-03T16:27:02.872Z,1.80
2018-10-03T16:29:31.059Z,2.40
2018-10-03T16:31:59.210Z,2.93
2018-10-03T16:34:27.366Z,2.80
2018-10-03T16:36:55.538Z,2.60
2018-10-03T16:39:23.698Z,2.90
2018-10-03T16:41:51.867Z,2.97
2018-10-03T16:44:20.042Z,2.90
2018-10-03T16:46:48.197Z,2.90
2018-10-03T16:49:16.442Z,2.60
2018-10-03T16:51:44.591Z,2.13
2018-10-03T16:54:12.882Z,2.30
2018-10-03T16:56:41.070Z,2.33
2018-10-03T16:59:09.218Z,3.10
2018-10-03T17:01:37.639Z,2.63
2018-10-03T17:04:05.778Z,2.73
2018-10-03T17:06:33.937Z,2.07
2018-10-03T17:09:02.079Z,2.90
2018-10-03T17:11:30.233Z,2.60
2018-10-03T17:14:31.475Z,2.67
2018-10-03T17:16:59.602Z,3.67
2018-10-03T17:19:27.750Z,4.00
2018-10-03T17:21:57.135Z,3.87
2018-10-03T17:24:29.397Z,4.17
2018-10-03T17:26:57.543Z,4.43
2018-10-03T17:29:25.685Z,4.33
2018-10-03T17:31:53.826Z,4.40
2018-10-03T17:34:21.979Z,4.83
2018-10-03T17:36:51.402Z,4.40
2018-10-03T17:39:20.140Z,4.50
2018-10-03T17:41:48.322Z,4.90
2018-10-03T17:44:17.595Z,4.73
2018-10-03T17:46:46.551Z,4.13
2018-10-03T17:49:14.710Z,4.17
2018-10-03T17:51:42.851Z,3.77
2018-10-03T17:54:11.139Z,3.83
2018-10-03T17:56:39.296Z,4.43
2018-10-03T17:59:07.950Z,6.37
2018-10-03T18:01:37.915Z,4.63
2018-10-03T18:04:06.047Z,4.70
2018-10-03T18:06:34.199Z,3.83
2018-10-03T18:09:02.353Z,4.60
2018-10-03T18:11:30.493Z,4.10
2018-10-03T18:13:58.669Z,3.90
2018-10-03T18:16:26.835Z,4.40
2018-10-03T18:18:55.032Z,3.83
2018-10-03T18:21:23.122Z,4.20
2018-10-03T18:23:51.282Z,4.07
2018-10-03T18:26:19.436Z,4.50
2018-10-03T18:28:47.584Z,4.40
2018-10-03T18:31:15.751Z,4.40
2018-10-03T18:33:43.907Z,4.43
2018-10-03T18:36:12.073Z,4.73
2018-10-03T18:38:40.231Z,4.10
2018-10-03T18:41:08.419Z,4.00
2018-10-03T18:43:36.595Z,3.70
2018-10-03T18:46:04.783Z,4.73
2018-10-03T18:48:32.930Z,4.30
2018-10-03T18:51:01.185Z,4.50
2018-10-03T18:53:29.343Z,4.20
2018-10-03T18:55:57.568Z,4.57
2018-10-03T18:58:25.692Z,4.50
2018-10-03T19:00:53.854Z,3.57
2018-10-03T19:03:22.010Z,3.80
2018-10-03T19:05:50.268Z,4.43
2018-10-03T19:08:18.371Z,4.20
2018-10-03T19:10:46.530Z,4.07
2018-10-03T19:13:14.714Z,6.17
2018-10-03T19:15:42.885Z,7.40
2018-10-03T19:18:11.117Z,7.10
2018-10-03T19:20:39.217Z,6.30
2018-10-03T19:23:07.346Z,5.03
2018-10-03T19:25:35.539Z,4.57
2018-10-03T19:28:03.705Z,4.90
2018-10-03T19:30:31.888Z,4.60
2018-10-03T19:33:00.050Z,4.30
2018-10-03T19:35:28.244Z,5.00
2018-10-03T19:37:56.398Z,4.73
2018-10-03T19:40:24.545Z,4.30
2018-10-03T19:42:52.695Z,5.07
2018-10-03T19:45:20.894Z,4.30
2018-10-03T19:47:49.306Z,4.17
2018-10-03T19:50:17.447Z,5.47
2018-10-03T19:52:45.598Z,4.73
2018-10-03T19:55:13.738Z,4.90
2018-10-03T19:57:42.010Z,4.50
2018-10-03T20:00:10.217Z,4.77
2018-10-03T20:02:38.442Z,4.40
2018-10-03T20:05:06.714Z,4.30
2018-10-03T20:07:34.876Z,4.50
2018-10-03T20:10:03.232Z,4.97
2018-10-03T20:12:31.407Z,4.40
2018-10-03T20:14:59.554Z,5.30
2018-10-03T20:17:27.731Z,4.70
2018-10-03T20:19:55.895Z,4.30
2018-10-03T20:22:24.103Z,4.40
2018-10-03T20:24:52.246Z,4.90
2018-10-03T20:27:20.404Z,5.10
2018-10-03T20:29:48.529Z,3.70
2018-10-03T20:32:16.686Z,4.57
2018-10-03T20:34:44.830Z,4.23
2018-10-03T20:37:13.010Z,4.10
2018-10-03T20:39:41.160Z,4.20
2018-10-03T20:42:09.280Z,3.67
2018-10-03T20:44:37.421Z,3.50
2018-10-03T20:47:05.605Z,5.10
2018-10-03T20:49:33.754Z,3.57
2018-10-03T20:52:01.919Z,3.73
2018-10-03T20:54:30.113Z,3.63
2018-10-03T20:56:58.418Z,4.00
2018-10-03T20:59:26.635Z,4.20
2018-10-03T21:01:54.742Z,4.00
2018-10-03T21:04:22.942Z,4.07
2018-10-03T21:06:51.167Z,4.33
2018-10-03T21:09:19.355Z,4.60
2018-10-03T21:11:47.482Z,4.70
2018-10-03T21:14:15.703Z,4.50
2018-10-03T21:16:43.830Z,4.10
2018-10-03T21:19:12.057Z,4.23
2018-10-03T21:21:40.195Z,4.10
2018-10-03T21:24:08.322Z,4.27
2018-10-03T21:26:36.482Z,4.33
2018-10-03T21:29:04.632Z,5.10
2018-10-03T21:31:32.751Z,4.90
2018-10-03T21:34:00.895Z,4.90
2018-10-03T21:36:29.022Z,5.10
2018-10-03T21:38:57.221Z,5.03
2018-10-03T21:41:25.369Z,5.70
2018-10-03T21:43:53.512Z,5.40
2018-10-03T21:46:21.642Z,5.87
2018-10-03T21:48:49.757Z,5.70
2018-10-03T21:51:17.898Z,5.23
2018-10-03T21:53:46.026Z,5.77
2018-10-03T21:56:14.168Z,5.37
2018-10-03T21:58:42.295Z,4.90
2018-10-03T22:01:10.430Z,5.13
2018-10-03T22:03:38.554Z,5.57
2018-10-03T22:06:06.699Z,5.20
2018-10-03T22:08:34.826Z,4.90
2018-10-03T22:11:02.974Z,5.10
2018-10-03T22:13:31.101Z,5.27
2018-10-03T22:15:59.225Z,4.73
2018-10-03T22:18:27.374Z,5.33
2018-10-03T22:20:55.510Z,4.43
2018-10-03T22:23:23.697Z,4.17
2018-10-03T22:25:51.826Z,4.20
2018-10-03T22:28:20.010Z,4.30
2018-10-03T22:30:48.114Z,4.03
2018-10-03T22:33:16.308Z,4.43
2018-10-03T22:35:44.443Z,4.40
2018-10-03T22:38:12.618Z,3.67
2018-10-03T22:40:40.725Z,4.83
2018-10-03T22:43:08.883Z,4.40
2018-10-03T22:45:37.023Z,3.87
2018-10-03T22:48:05.172Z,4.53
2018-10-03T22:50:33.307Z,4.40
2018-10-03T22:53:01.445Z,4.73
2018-10-03T22:55:29.587Z,4.70
2018-10-03T22:57:57.727Z,4.10
2018-10-03T23:00:25.862Z,4.43
2018-10-03T23:02:54.002Z,4.40
2018-10-03T23:05:22.146Z,4.53
2018-10-03T23:07:50.301Z,4.70
2018-10-03T23:10:18.433Z,4.40
2018-10-03T23:12:46.574Z,4.33
2018-10-03T23:15:14.713Z,4.03
2018-10-03T23:17:42.854Z,5.30
2018-10-03T23:20:10.985Z,4.80
2018-10-03T23:22:39.139Z,4.77
2018-10-03T23:25:07.280Z,5.07
2018-10-03T23:27:35.417Z,4.10
2018-10-03T23:30:03.556Z,4.50
2018-10-03T23:32:31.704Z,4.37
2018-10-03T23:34:59.849Z,4.53
2018-10-03T23:37:27.982Z,4.20
2018-10-03T23:39:56.126Z,4.17
2018-10-03T23:42:24.249Z,4.30
2018-10-03T23:44:52.393Z,4.70
2018-10-03T23:47:20.545Z,4.40
2018-10-03T23:49:48.679Z,4.73
2018-10-03T23:52:16.838Z,4.23
2018-10-03T23:54:44.999Z,4.20
2018-10-03T23:57:13.200Z,4.10
2018-10-03T23:59:41.290Z,4.50
